Airfield :
LOGIN :

Register | Disclaimer

   EN    FR    IT 

 










Legend :    VFR   Marginal VFR   IFR   Intensive IFR   Very Intensive IFR
Visi :
Ceiling :
>= 8 km
>= 3000ft
5 to 8 km
1000 to 3000 ft
1500m to 5 km
500 to 1000 ft
800 to 1500m
200 to 500 ft
< 800m
< 200 ft
Symbols :   Thunderstorms  Fog  Heavy snow  Heavy precipitations  Wind > 20 kt
SIGMETs :     Misc.  Thunderstorms  Icing  Turbulence  Mountain Waves  Volcanic Ashes






- Airport Elevation : 512 ft
- IATA code : URO


LFOP - Rouen Vallée de Seine

CURRENT METAR :
  • 091600Z AUTO 11007KT CAVOK 24/04 Q1022

EXPIRED METARs :
  • 091530Z AUTO 09006KT 060V130 CAVOK 24/05 Q1022
  • 091500Z AUTO 11008KT 070V130 CAVOK 25/05 Q1022
  • 091430Z AUTO 09008KT 070V130 CAVOK 25/05 Q1022
  • 091400Z AUTO 10008KT CAVOK 24/04 Q1022
  • 091330Z AUTO 09009KT 050V160 CAVOK 25/06 Q1023
  • 091300Z AUTO 11009KT 080V150 CAVOK 25/05 Q1023

Expired Forecast.
ATIS : +33 2 35 80 80 34
Met : +33 2 32 86 52 80



MET'MAP, your aeronautical weather chart ! - Copyright ORBIFLY December 2007 - Disclaimer

ORBIFLY MET'MAP TEAM :

Programming & Development : Alexandra Zaïnal
Concept & original design : Baudouin d'Aumeries
Assistance for programming : Marc-Olivier Méhu
Technical & hardware support : Manuel Goepfert

Contact : metmap@orbifly.com




SOURCES & CREDITS :

   NOAA